AAL282 KBNA-KMIA
Flight info
| Callsign | AAL282 |
|---|---|
| Flight time | N/A |
| Altitude | 35000 |
| Route | FLAME4 GENDE ACORI FROGZ5 |
| Aircraft | A321/M-SDE3FGHIRWY/LB1 |
Departure
| Time | 2026-05-01 14:16 |
|---|---|
| Airport | Nashville International Airport (KBNA) |
Arrival
| Time | N/A |
|---|---|
| Airport | Miami International Airport (KMIA) |
| Time | Latitude | Longitude | Altitude | Speed | Heading |
|---|---|---|---|---|---|
| 2026-05-01 14:04 | 36.12923 | -86.67132 | 569 ft | 0 kts | 118° |
| 2026-05-01 14:07 | 36.12925 | -86.67137 | 580 ft | 3 kts | 120° |
| 2026-05-01 14:08 | 36.12964 | -86.67179 | 569 ft | 4 kts | 172° |
| 2026-05-01 14:08 | 36.12988 | -86.67175 | 571 ft | 4 kts | 216° |
| 2026-05-01 14:08 | 36.12993 | -86.67170 | 571 ft | 0 kts | 224° |
| 2026-05-01 14:12 | 36.12992 | -86.67171 | 571 ft | 2 kts | 224° |
| 2026-05-01 14:12 | 36.12951 | -86.67220 | 572 ft | 11 kts | 224° |
| 2026-05-01 14:12 | 36.12880 | -86.67257 | 571 ft | 12 kts | 197° |
| 2026-05-01 14:12 | 36.12813 | -86.67320 | 572 ft | 13 kts | 223° |
| 2026-05-01 14:13 | 36.12739 | -86.67406 | 574 ft | 15 kts | 223° |
| 2026-05-01 14:13 | 36.12685 | -86.67452 | 581 ft | 14 kts | 210° |
| 2026-05-01 14:13 | 36.12572 | -86.67542 | 582 ft | 15 kts | 223° |
| 2026-05-01 14:13 | 36.12499 | -86.67627 | 585 ft | 14 kts | 223° |
| 2026-05-01 14:14 | 36.12414 | -86.67686 | 582 ft | 15 kts | 198° |
| 2026-05-01 14:14 | 36.12353 | -86.67732 | 583 ft | 9 kts | 262° |
| 2026-05-01 14:14 | 36.12374 | -86.67824 | 579 ft | 13 kts | 289° |
| 2026-05-01 14:14 | 36.12402 | -86.67931 | 578 ft | 9 kts | 277° |
| 2026-05-01 14:15 | 36.12353 | -86.67989 | 576 ft | 16 kts | 199° |
| 2026-05-01 14:15 | 36.11982 | -86.68137 | 576 ft | 93 kts | 198° |
| 2026-05-01 14:15 | 36.11172 | -86.68460 | 575 ft | 153 kts | 198° |
| 2026-05-01 14:15 | 36.10074 | -86.68886 | 1038 ft | 163 kts | 198° |
| 2026-05-01 14:16 | 36.08993 | -86.69298 | 1826 ft | 163 kts | 198° |
| 2026-05-01 14:16 | 36.07904 | -86.69703 | 2482 ft | 166 kts | 199° |
| 2026-05-01 14:16 | 36.06734 | -86.70142 | 2779 ft | 186 kts | 199° |
| 2026-05-01 14:16 | 36.05424 | -86.70637 | 2980 ft | 208 kts | 199° |
| 2026-05-01 14:17 | 36.03956 | -86.71193 | 3162 ft | 232 kts | 199° |
| 2026-05-01 14:17 | 36.02327 | -86.71813 | 3397 ft | 258 kts | 200° |
| 2026-05-01 14:17 | 36.00556 | -86.72487 | 3924 ft | 272 kts | 199° |
| 2026-05-01 14:17 | 35.98732 | -86.73177 | 4696 ft | 277 kts | 199° |
| 2026-05-01 14:18 | 35.96880 | -86.73877 | 5511 ft | 279 kts | 199° |
| 2026-05-01 14:18 | 35.95019 | -86.74563 | 6412 ft | 279 kts | 195° |
| 2026-05-01 14:18 | 35.93131 | -86.74860 | 7220 ft | 281 kts | 185° |
| 2026-05-01 14:18 | 35.91836 | -86.74945 | 7760 ft | 282 kts | 186° |
| 2026-05-01 14:19 | 35.89203 | -86.75121 | 8804 ft | 285 kts | 187° |
| 2026-05-01 14:19 | 35.87212 | -86.75260 | 9586 ft | 288 kts | 188° |
| 2026-05-01 14:19 | 35.85199 | -86.75403 | 10260 ft | 295 kts | 188° |
| 2026-05-01 14:19 | 35.83071 | -86.75564 | 10443 ft | 318 kts | 188° |
| 2026-05-01 14:20 | 35.80780 | -86.75737 | 10595 ft | 341 kts | 188° |
| 2026-05-01 14:20 | 35.75857 | -86.76088 | 11514 ft | 361 kts | 188° |
| 2026-05-01 14:20 | 35.73360 | -86.76258 | 12159 ft | 365 kts | 188° |
| 2026-05-01 14:21 | 35.70777 | -86.76435 | 12791 ft | 370 kts | 188° |
| 2026-05-01 14:21 | 35.69549 | -86.76519 | 13103 ft | 372 kts | 188° |
| 2026-05-01 14:21 | 35.66948 | -86.76697 | 13752 ft | 376 kts | 189° |
| 2026-05-01 14:22 | 35.61666 | -86.77068 | 14962 ft | 383 kts | 189° |
| 2026-05-01 14:22 | 35.58961 | -86.77260 | 15608 ft | 385 kts | 189° |
| 2026-05-01 14:22 | 35.56274 | -86.77448 | 16247 ft | 388 kts | 189° |
| 2026-05-01 14:22 | 35.53573 | -86.77634 | 16877 ft | 391 kts | 190° |
| 2026-05-01 14:23 | 35.50850 | -86.77814 | 17507 ft | 393 kts | 190° |
| 2026-05-01 14:23 | 35.48103 | -86.77994 | 18132 ft | 396 kts | 190° |
| 2026-05-01 14:23 | 35.45351 | -86.78175 | 18673 ft | 398 kts | 190° |
| 2026-05-01 14:23 | 35.42564 | -86.78360 | 19124 ft | 403 kts | 191° |
| 2026-05-01 14:24 | 35.39784 | -86.78548 | 19634 ft | 406 kts | 191° |
| 2026-05-01 14:24 | 35.36916 | -86.78744 | 20153 ft | 409 kts | 192° |
| 2026-05-01 14:24 | 35.34109 | -86.78938 | 20677 ft | 411 kts | 192° |
| 2026-05-01 14:24 | 35.31249 | -86.79132 | 21184 ft | 413 kts | 193° |
| 2026-05-01 14:25 | 35.28372 | -86.79329 | 21647 ft | 415 kts | 193° |
| 2026-05-01 14:25 | 35.25441 | -86.79531 | 22151 ft | 417 kts | 193° |
| 2026-05-01 14:25 | 35.22580 | -86.79725 | 22624 ft | 419 kts | 194° |
| 2026-05-01 14:25 | 35.19664 | -86.79918 | 23052 ft | 421 kts | 193° |
| 2026-05-01 14:26 | 35.16682 | -86.80114 | 23462 ft | 425 kts | 194° |
| 2026-05-01 14:26 | 35.10788 | -86.80506 | 24236 ft | 429 kts | 194° |
| 2026-05-01 14:26 | 35.07798 | -86.80704 | 24602 ft | 431 kts | 194° |
| 2026-05-01 14:27 | 35.04799 | -86.80901 | 24993 ft | 432 kts | 194° |
| 2026-05-01 14:27 | 35.01789 | -86.81101 | 25372 ft | 434 kts | 194° |
| 2026-05-01 14:27 | 34.98763 | -86.81299 | 25751 ft | 436 kts | 195° |
| 2026-05-01 14:28 | 34.92685 | -86.81699 | 26421 ft | 439 kts | 195° |
| 2026-05-01 14:28 | 34.89633 | -86.81906 | 26769 ft | 441 kts | 195° |
| 2026-05-01 14:28 | 34.87053 | -86.82079 | 27053 ft | 442 kts | 195° |
| 2026-05-01 14:28 | 34.86362 | -86.82126 | 27122 ft | 442 kts | 195° |
| 2026-05-01 14:29 | 34.83276 | -86.82328 | 27459 ft | 445 kts | 194° |
| 2026-05-01 14:29 | 34.80120 | -86.82152 | 27800 ft | 464 kts | 185° |
| 2026-05-01 14:30 | 34.70432 | -86.79137 | 28811 ft | 484 kts | 177° |
| 2026-05-01 14:30 | 34.67186 | -86.78055 | 29124 ft | 483 kts | 178° |
| 2026-05-01 14:30 | 34.63955 | -86.76978 | 29725 ft | 478 kts | 178° |
| 2026-05-01 14:31 | 34.57593 | -86.74874 | 30665 ft | 472 kts | 179° |
| 2026-05-01 14:31 | 34.54425 | -86.73840 | 31017 ft | 471 kts | 179° |